sensor_id;sensor_type;location;lat;lon;timestamp;pressure;altitude;pressure_sealevel;temperature;humidity
55610;BME280;41486;52.502;13.486;2023-03-01T00:01:14;102571.91;;;-1.31;100.00
55610;BME280;41486;52.502;13.486;2023-03-01T00:03:43;102567.59;;;-1.32;100.00
55610;BME280;41486;52.502;13.486;2023-03-01T00:06:11;102570.97;;;-1.44;100.00
55610;BME280;41486;52.502;13.486;2023-03-01T00:08:39;102564.88;;;-1.61;100.00
55610;BME280;41486;52.502;13.486;2023-03-01T00:11:10;102552.84;;;-1.61;100.00
55610;BME280;41486;52.502;13.486;2023-03-01T00:13:41;102551.16;;;-1.51;100.00
55610;BME280;41486;52.502;13.486;2023-03-01T00:16:11;102555.50;;;-1.42;100.00
55610;BME280;41486;52.502;13.486;2023-03-01T00:18:40;102549.41;;;-1.55;100.00
55610;BME280;41486;52.502;13.486;2023-03-01T00:21:08;102549.28;;;-1.81;100.00
55610;BME280;41486;52.502;13.486;2023-03-01T00:23:37;102553.69;;;-1.65;100.00
55610;BME280;41486;52.502;13.486;2023-03-01T00:26:10;102544.25;;;-1.55;100.00
55610;BME280;41486;52.502;13.486;2023-03-01T00:28:42;102541.56;;;-1.72;100.00
55610;BME280;41486;52.502;13.486;2023-03-01T00:31:12;102543.28;;;-1.77;100.00
55610;BME280;41486;52.502;13.486;2023-03-01T00:33:41;102546.69;;;-1.83;100.00
55610;BME280;41486;52.502;13.486;2023-03-01T00:36:11;102538.91;;;-1.91;100.00
55610;BME280;41486;52.502;13.486;2023-03-01T00:38:42;102546.75;;;-1.67;100.00
55610;BME280;41486;52.502;13.486;2023-03-01T00:41:13;102540.78;;;-1.55;100.00
55610;BME280;41486;52.502;13.486;2023-03-01T00:43:43;102540.00;;;-1.47;100.00
55610;BME280;41486;52.502;13.486;2023-03-01T00:46:12;102538.28;;;-1.43;100.00
55610;BME280;41486;52.502;13.486;2023-03-01T00:48:41;102530.44;;;-1.60;100.00
55610;BME280;41486;52.502;13.486;2023-03-01T00:51:10;102536.47;;;-1.66;100.00
55610;BME280;41486;52.502;13.486;2023-03-01T00:53:39;102539.88;;;-1.70;100.00
55610;BME280;41486;52.502;13.486;2023-03-01T00:56:09;102543.38;;;-1.55;100.00
55610;BME280;41486;52.502;13.486;2023-03-01T00:58:38;102537.31;;;-1.65;100.00
55610;BME280;41486;52.502;13.486;2023-03-01T01:01:12;102536.50;;;-1.53;100.00
55610;BME280;41486;52.502;13.486;2023-03-01T01:03:46;102530.47;;;-1.59;100.00
55610;BME280;41486;52.502;13.486;2023-03-01T01:06:19;102525.25;;;-1.69;100.00
55610;BME280;41486;52.502;13.486;2023-03-01T01:08:47;102530.44;;;-1.60;100.00
55610;BME280;41486;52.502;13.486;2023-03-01T01:11:16;102522.56;;;-1.89;100.00
55610;BME280;41486;52.502;13.486;2023-03-01T01:13:45;102521.63;;;-1.99;100.00
55610;BME280;41486;52.502;13.486;2023-03-01T01:16:16;102518.09;;;-2.15;100.00
55610;BME280;41486;52.502;13.486;2023-03-01T01:18:45;102514.66;;;-2.11;100.00
55610;BME280;41486;52.502;13.486;2023-03-01T01:21:14;102512.13;;;-2.10;100.00
55610;BME280;41486;52.502;13.486;2023-03-01T01:23:43;102512.06;;;-2.16;100.00
55610;BME280;41486;52.502;13.486;2023-03-01T01:26:14;102512.25;;;-1.89;100.00
55610;BME280;41486;52.502;13.486;2023-03-01T01:28:42;102506.31;;;-1.71;100.00
55610;BME280;41486;52.502;13.486;2023-03-01T01:31:10;102493.41;;;-1.73;100.00
55610;BME280;41486;52.502;13.486;2023-03-01T01:33:39;102489.91;;;-1.86;100.00
55610;BME280;41486;52.502;13.486;2023-03-01T01:36:08;102478.81;;;-1.69;100.00
55610;BME280;41486;52.502;13.486;2023-03-01T01:38:37;102485.69;;;-1.67;100.00
55610;BME280;41486;52.502;13.486;2023-03-01T01:41:06;102477.91;;;-1.70;100.00
55610;BME280;41486;52.502;13.486;2023-03-01T01:43:36;102476.03;;;-2.03;100.00
55610;BME280;41486;52.502;13.486;2023-03-01T01:46:06;102485.44;;;-2.13;100.00
55610;BME280;41486;52.502;13.486;2023-03-01T01:48:43;102488.13;;;-1.98;100.00
55610;BME280;41486;52.502;13.486;2023-03-01T01:51:16;102485.47;;;-2.04;100.00
55610;BME280;41486;52.502;13.486;2023-03-01T01:53:51;102488.16;;;-1.88;100.00
55610;BME280;41486;52.502;13.486;2023-03-01T01:56:21;102484.72;;;-1.89;100.00
55610;BME280;41486;52.502;13.486;2023-03-01T01:58:51;102495.75;;;-2.13;100.00
55610;BME280;41486;52.502;13.486;2023-03-01T02:01:20;102491.50;;;-2.02;100.00
55610;BME280;41486;52.502;13.486;2023-03-01T02:03:50;102500.16;;;-1.97;100.00
55610;BME280;41486;52.502;13.486;2023-03-01T02:06:22;102497.66;;;-1.78;100.00
55610;BME280;41486;52.502;13.486;2023-03-01T02:08:57;102501.94;;;-1.80;100.00
55610;BME280;41486;52.502;13.486;2023-03-01T02:11:27;102506.22;;;-1.90;100.00
55610;BME280;41486;52.502;13.486;2023-03-01T02:13:55;102507.94;;;-1.87;100.00
55610;BME280;41486;52.502;13.486;2023-03-01T02:16:25;102499.28;;;-1.99;100.00
55610;BME280;41486;52.502;13.486;2023-03-01T02:18:57;102496.69;;;-2.03;100.00
55610;BME280;41486;52.502;13.486;2023-03-01T02:21:38;102501.00;;;-1.98;100.00
55610;BME280;41486;52.502;13.486;2023-03-01T02:24:20;102499.34;;;-1.86;100.00
55610;BME280;41486;52.502;13.486;2023-03-01T02:26:55;102504.34;;;-2.14;100.00
55610;BME280;41486;52.502;13.486;2023-03-01T02:29:26;102503.25;;;-2.44;100.00
55610;BME280;41486;52.502;13.486;2023-03-01T02:31:58;102500.69;;;-2.44;100.00
55610;BME280;41486;52.502;13.486;2023-03-01T02:34:27;102503.25;;;-2.47;100.00
55610;BME280;41486;52.502;13.486;2023-03-01T02:36:59;102509.44;;;-2.24;100.00
55610;BME280;41486;52.502;13.486;2023-03-01T02:39:33;102505.97;;;-2.27;100.00
55610;BME280;41486;52.502;13.486;2023-03-01T02:42:02;102506.66;;;-2.48;100.00
55610;BME280;41486;52.502;13.486;2023-03-01T02:44:32;102499.75;;;-2.57;100.00
55610;BME280;41486;52.502;13.486;2023-03-01T02:47:02;102494.50;;;-2.63;100.00
55610;BME280;41486;52.502;13.486;2023-03-01T02:49:33;102494.47;;;-2.70;100.00
55610;BME280;41486;52.502;13.486;2023-03-01T02:52:19;102494.59;;;-2.54;100.00
55610;BME280;41486;52.502;13.486;2023-03-01T02:54:52;102485.97;;;-2.58;100.00
55610;BME280;41486;52.502;13.486;2023-03-01T02:57:24;102490.28;;;-2.58;100.00
55610;BME280;41486;52.502;13.486;2023-03-01T02:59:56;102478.13;;;-2.72;100.00
55610;BME280;41486;52.502;13.486;2023-03-01T03:02:26;102472.16;;;-2.69;100.00
55610;BME280;41486;52.502;13.486;2023-03-01T03:05:09;102473.03;;;-2.62;100.00
55610;BME280;41486;52.502;13.486;2023-03-01T03:07:40;102469.50;;;-2.77;100.00
55610;BME280;41486;52.502;13.486;2023-03-01T03:10:10;102478.19;;;-2.65;100.00
55610;BME280;41486;52.502;13.486;2023-03-01T03:12:39;102473.03;;;-2.62;100.00
55610;BME280;41486;52.502;13.486;2023-03-01T03:15:11;102473.84;;;-2.68;100.00
55610;BME280;41486;52.502;13.486;2023-03-01T03:17:41;102473.00;;;-2.67;100.00
55610;BME280;41486;52.502;13.486;2023-03-01T03:20:13;102475.75;;;-2.47;100.00
55610;BME280;41486;52.502;13.486;2023-03-01T03:22:46;102479.16;;;-2.52;100.00
55610;BME280;41486;52.502;13.486;2023-03-01T03:25:15;102481.56;;;-2.70;100.00
55610;BME280;41486;52.502;13.486;2023-03-01T03:27:44;102478.94;;;-2.77;100.00
55610;BME280;41486;52.502;13.486;2023-03-01T03:30:16;102461.75;;;-2.75;100.00
55610;BME280;41486;52.502;13.486;2023-03-01T03:32:46;102460.84;;;-2.85;100.00
55610;BME280;41486;52.502;13.486;2023-03-01T03:35:19;102456.56;;;-2.81;100.00
55610;BME280;41486;52.502;13.486;2023-03-01T03:37:48;102459.06;;;-2.91;100.00
55610;BME280;41486;52.502;13.486;2023-03-01T03:40:34;102467.63;;;-2.93;100.00
55610;BME280;41486;52.502;13.486;2023-03-01T03:43:03;102464.19;;;-2.94;100.00
55610;BME280;41486;52.502;13.486;2023-03-01T03:45:33;102452.03;;;-3.07;100.00
55610;BME280;41486;52.502;13.486;2023-03-01T03:48:04;102448.47;;;-3.22;100.00
55610;BME280;41486;52.502;13.486;2023-03-01T03:50:32;102445.03;;;-3.22;100.00
55610;BME280;41486;52.502;13.486;2023-03-01T03:53:01;102438.97;;;-3.27;100.00
55610;BME280;41486;52.502;13.486;2023-03-01T03:55:31;102438.91;;;-3.35;100.00
55610;BME280;41486;52.502;13.486;2023-03-01T03:58:01;102440.53;;;-3.40;100.00
55610;BME280;41486;52.502;13.486;2023-03-01T04:00:35;102437.03;;;-3.49;100.00
55610;BME280;41486;52.502;13.486;2023-03-01T04:03:04;102433.00;;;-3.23;100.00
55610;BME280;41486;52.502;13.486;2023-03-01T04:05:32;102436.53;;;-3.13;100.00
55610;BME280;41486;52.502;13.486;2023-03-01T04:08:00;102435.59;;;-3.23;100.00
55610;BME280;41486;52.502;13.486;2023-03-01T04:10:35;102439.88;;;-3.22;100.00
55610;BME280;41486;52.502;13.486;2023-03-01T04:13:04;102439.00;;;-3.26;100.00
55610;BME280;41486;52.502;13.486;2023-03-01T04:15:34;102438.94;;;-3.30;100.00
55610;BME280;41486;52.502;13.486;2023-03-01T04:18:03;102444.06;;;-3.32;100.00
55610;BME280;41486;52.502;13.486;2023-03-01T04:20:33;102448.44;;;-3.25;100.00
55610;BME280;41486;52.502;13.486;2023-03-01T04:23:03;102440.75;;;-3.22;100.00
55610;BME280;41486;52.502;13.486;2023-03-01T04:25:38;102439.91;;;-3.19;100.00
55610;BME280;41486;52.502;13.486;2023-03-01T04:28:07;102436.44;;;-3.23;100.00
55610;BME280;41486;52.502;13.486;2023-03-01T04:30:37;102440.72;;;-3.23;100.00
55610;BME280;41486;52.502;13.486;2023-03-01T04:33:07;102431.19;;;-3.34;100.00
55610;BME280;41486;52.502;13.486;2023-03-01T04:35:36;102431.19;;;-3.32;100.00
55610;BME280;41486;52.502;13.486;2023-03-01T04:38:05;102436.31;;;-3.35;100.00
55610;BME280;41486;52.502;13.486;2023-03-01T04:40:33;102434.66;;;-3.30;100.00
55610;BME280;41486;52.502;13.486;2023-03-01T04:43:03;102432.91;;;-3.34;100.00
55610;BME280;41486;52.502;13.486;2023-03-01T04:45:32;102432.06;;;-3.28;100.00
55610;BME280;41486;52.502;13.486;2023-03-01T04:48:02;102432.81;;;-3.40;100.00
55610;BME280;41486;52.502;13.486;2023-03-01T04:50:32;102432.06;;;-3.33;100.00
55610;BME280;41486;52.502;13.486;2023-03-01T04:53:00;102430.53;;;-3.12;100.00
55610;BME280;41486;52.502;13.486;2023-03-01T04:55:28;102432.13;;;-3.27;100.00
55610;BME280;41486;52.502;13.486;2023-03-01T04:57:56;102433.91;;;-3.20;100.00
55610;BME280;41486;52.502;13.486;2023-03-01T05:00:24;102433.00;;;-3.25;100.00
55610;BME280;41486;52.502;13.486;2023-03-01T05:02:54;102437.31;;;-3.21;100.00
55610;BME280;41486;52.502;13.486;2023-03-01T05:05:25;102431.31;;;-3.21;100.00
55610;BME280;41486;52.502;13.486;2023-03-01T05:07:55;102437.47;;;-3.05;100.00
55610;BME280;41486;52.502;13.486;2023-03-01T05:10:24;102425.25;;;-3.26;100.00
55610;BME280;41486;52.502;13.486;2023-03-01T05:12:52;102422.59;;;-3.34;100.00
55610;BME280;41486;52.502;13.486;2023-03-01T05:15:20;102418.25;;;-3.38;100.00
55610;BME280;41486;52.502;13.486;2023-03-01T05:17:52;102425.97;;;-3.38;100.00
55610;BME280;41486;52.502;13.486;2023-03-01T05:20:23;102423.44;;;-3.35;100.00
55610;BME280;41486;52.502;13.486;2023-03-01T05:22:51;102429.41;;;-3.39;100.00
55610;BME280;41486;52.502;13.486;2023-03-01T05:25:20;102426.75;;;-3.45;100.00
55610;BME280;41486;52.502;13.486;2023-03-01T05:27:48;102424.25;;;-3.42;100.00
55610;BME280;41486;52.502;13.486;2023-03-01T05:30:17;102421.63;;;-3.45;100.00
55610;BME280;41486;52.502;13.486;2023-03-01T05:32:46;102421.44;;;-3.61;100.00
55610;BME280;41486;52.502;13.486;2023-03-01T05:35:16;102421.44;;;-3.62;100.00
55610;BME280;41486;52.502;13.486;2023-03-01T05:37:48;102416.34;;;-3.56;100.00
55610;BME280;41486;52.502;13.486;2023-03-01T05:40:19;102414.72;;;-3.50;100.00
55610;BME280;41486;52.502;13.486;2023-03-01T05:42:48;102417.31;;;-3.50;100.00
55610;BME280;41486;52.502;13.486;2023-03-01T05:45:17;102416.41;;;-3.53;100.00
55610;BME280;41486;52.502;13.486;2023-03-01T05:47:47;102412.16;;;-3.48;100.00
55610;BME280;41486;52.502;13.486;2023-03-01T05:50:17;102403.53;;;-3.53;100.00
55610;BME280;41486;52.502;13.486;2023-03-01T05:52:49;102403.50;;;-3.55;100.00
55610;BME280;41486;52.502;13.486;2023-03-01T05:55:18;102407.16;;;-3.33;100.00
55610;BME280;41486;52.502;13.486;2023-03-01T05:57:47;102418.22;;;-3.43;100.00
55610;BME280;41486;52.502;13.486;2023-03-01T06:00:18;102416.56;;;-3.38;100.00
55610;BME280;41486;52.502;13.486;2023-03-01T06:02:46;102416.50;;;-3.42;100.00
55610;BME280;41486;52.502;13.486;2023-03-01T06:05:15;102423.41;;;-3.38;100.00
55610;BME280;41486;52.502;13.486;2023-03-01T06:07:43;102419.19;;;-3.31;100.00
55610;BME280;41486;52.502;13.486;2023-03-01T06:10:13;102422.56;;;-3.37;100.00
55610;BME280;41486;52.502;13.486;2023-03-01T06:12:42;102421.50;;;-3.55;100.00
55610;BME280;41486;52.502;13.486;2023-03-01T06:15:11;102419.03;;;-3.49;100.00
55610;BME280;41486;52.502;13.486;2023-03-01T06:17:41;102423.25;;;-3.52;100.00
55610;BME280;41486;52.502;13.486;2023-03-01T06:20:11;102422.44;;;-3.48;100.00
55610;BME280;41486;52.502;13.486;2023-03-01T06:22:41;102416.53;;;-3.39;100.00
55610;BME280;41486;52.502;13.486;2023-03-01T06:25:10;102409.75;;;-3.31;100.00
55610;BME280;41486;52.502;13.486;2023-03-01T06:27:41;102411.47;;;-3.28;100.00
55610;BME280;41486;52.502;13.486;2023-03-01T06:30:11;102415.69;;;-3.38;100.00
55610;BME280;41486;52.502;13.486;2023-03-01T06:32:41;102415.69;;;-3.38;100.00
55610;BME280;41486;52.502;13.486;2023-03-01T06:35:09;102418.34;;;-3.29;100.00
55610;BME280;41486;52.502;13.486;2023-03-01T06:37:38;102418.44;;;-3.21;100.00
55610;BME280;41486;52.502;13.486;2023-03-01T06:40:09;102429.75;;;-3.04;100.00
55610;BME280;41486;52.502;13.486;2023-03-01T06:42:41;102426.38;;;-2.98;100.00
55610;BME280;41486;52.502;13.486;2023-03-01T06:45:10;102429.81;;;-2.94;100.00
55610;BME280;41486;52.502;13.486;2023-03-01T06:47:38;102435.88;;;-2.91;100.00
55610;BME280;41486;52.502;13.486;2023-03-01T06:50:07;102424.75;;;-2.83;100.00
55610;BME280;41486;52.502;13.486;2023-03-01T06:52:35;102430.84;;;-2.75;100.00
55610;BME280;41486;52.502;13.486;2023-03-01T06:55:04;102436.06;;;-2.66;100.00
55610;BME280;41486;52.502;13.486;2023-03-01T06:57:32;102429.22;;;-2.62;100.00
55610;BME280;41486;52.502;13.486;2023-03-01T07:00:01;102431.91;;;-2.50;100.00
55610;BME280;41486;52.502;13.486;2023-03-01T07:02:29;102436.22;;;-2.44;100.00
55610;BME280;41486;52.502;13.486;2023-03-01T07:04:57;102435.38;;;-2.46;100.00
55610;BME280;41486;52.502;13.486;2023-03-01T07:07:28;102436.25;;;-2.41;100.00
55610;BME280;41486;52.502;13.486;2023-03-01T07:09:58;102444.91;;;-2.33;100.00
55610;BME280;41486;52.502;13.486;2023-03-01T07:12:26;102443.22;;;-2.31;100.00
55610;BME280;41486;52.502;13.486;2023-03-01T07:14:54;102441.63;;;-2.09;100.00
55610;BME280;41486;52.502;13.486;2023-03-01T07:17:26;102444.25;;;-1.98;100.00
55610;BME280;41486;52.502;13.486;2023-03-01T07:19:54;102435.66;;;-1.94;100.00
55610;BME280;41486;52.502;13.486;2023-03-01T07:22:21;102446.91;;;-1.82;100.00
55610;BME280;41486;52.502;13.486;2023-03-01T07:24:49;102439.16;;;-1.79;100.00
55610;BME280;41486;52.502;13.486;2023-03-01T07:27:17;102444.38;;;-1.64;100.00
55610;BME280;41486;52.502;13.486;2023-03-01T07:29:47;102444.44;;;-1.53;100.00
55610;BME280;41486;52.502;13.486;2023-03-01T07:32:15;102445.28;;;-1.51;100.00
55610;BME280;41486;52.502;13.486;2023-03-01T07:34:44;102440.16;;;-1.37;100.00
55610;BME280;41486;52.502;13.486;2023-03-01T07:37:12;102445.34;;;-1.31;100.00
55610;BME280;41486;52.502;13.486;2023-03-01T07:39:40;102436.75;;;-1.27;100.00
55610;BME280;41486;52.502;13.486;2023-03-01T07:42:08;102442.78;;;-1.17;100.00
55610;BME280;41486;52.502;13.486;2023-03-01T07:44:36;102441.97;;;-1.02;100.00
55610;BME280;41486;52.502;13.486;2023-03-01T07:47:12;102436.78;;;-0.89;100.00
55610;BME280;41486;52.502;13.486;2023-03-01T07:49:39;102442.81;;;-0.76;100.00
55610;BME280;41486;52.502;13.486;2023-03-01T07:52:10;102437.66;;;-0.67;100.00
55610;BME280;41486;52.502;13.486;2023-03-01T07:54:39;102430.75;;;-0.60;100.00
55610;BME280;41486;52.502;13.486;2023-03-01T07:57:06;102435.06;;;-0.49;100.00
55610;BME280;41486;52.502;13.486;2023-03-01T07:59:34;102433.31;;;-0.40;100.00
55610;BME280;41486;52.502;13.486;2023-03-01T08:02:02;102435.91;;;-0.39;100.00
55610;BME280;41486;52.502;13.486;2023-03-01T08:04:31;102441.91;;;-0.26;100.00
55610;BME280;41486;52.502;13.486;2023-03-01T08:06:59;102440.16;;;-0.13;100.00
55610;BME280;41486;52.502;13.486;2023-03-01T08:09:33;102434.00;;;0.24;100.00
55610;BME280;41486;52.502;13.486;2023-03-01T08:12:01;102433.94;;;0.31;100.00
55610;BME280;41486;52.502;13.486;2023-03-01T08:14:31;102432.13;;;0.51;99.57
55610;BME280;41486;52.502;13.486;2023-03-01T08:17:00;102425.16;;;0.59;96.82
55610;BME280;41486;52.502;13.486;2023-03-01T08:19:29;102427.75;;;0.59;94.37
55610;BME280;41486;52.502;13.486;2023-03-01T08:21:57;102427.69;;;0.70;93.93
55610;BME280;41486;52.502;13.486;2023-03-01T08:24:29;102429.34;;;0.83;89.79
55610;BME280;41486;52.502;13.486;2023-03-01T08:26:57;102418.81;;;1.02;90.09
55610;BME280;41486;52.502;13.486;2023-03-01T08:29:25;102422.22;;;1.13;90.07
55610;BME280;41486;52.502;13.486;2023-03-01T08:31:56;102412.56;;;1.28;88.22
55610;BME280;41486;52.502;13.486;2023-03-01T08:34:24;102411.78;;;1.19;84.08
55610;BME280;41486;52.502;13.486;2023-03-01T08:36:52;102417.75;;;1.28;85.50
55610;BME280;41486;52.502;13.486;2023-03-01T08:39:21;102415.91;;;1.40;85.82
55610;BME280;41486;52.502;13.486;2023-03-01T08:41:50;102407.25;;;1.41;82.25
55610;BME280;41486;52.502;13.486;2023-03-01T08:44:18;102406.16;;;1.67;80.14
55610;BME280;41486;52.502;13.486;2023-03-01T08:46:47;102404.41;;;1.68;80.30
55610;BME280;41486;52.502;13.486;2023-03-01T08:49:18;102407.50;;;1.98;79.30
55610;BME280;41486;52.502;13.486;2023-03-01T08:51:47;102414.34;;;2.07;79.23
55610;BME280;41486;52.502;13.486;2023-03-01T08:54:17;102411.66;;;2.13;80.21
55610;BME280;41486;52.502;13.486;2023-03-01T08:56:46;102407.47;;;2.04;75.53
55610;BME280;41486;52.502;13.486;2023-03-01T08:59:16;102407.28;;;2.16;76.16
55610;BME280;41486;52.502;13.486;2023-03-01T09:01:46;102402.94;;;2.18;73.42
55610;BME280;41486;52.502;13.486;2023-03-01T09:04:14;102398.47;;;2.31;73.50
55610;BME280;41486;52.502;13.486;2023-03-01T09:06:42;102393.13;;;2.39;75.50
55610;BME280;41486;52.502;13.486;2023-03-01T09:09:13;102399.16;;;2.44;77.23
55610;BME280;41486;52.502;13.486;2023-03-01T09:11:43;102393.75;;;2.57;70.62
55610;BME280;41486;52.502;13.486;2023-03-01T09:14:13;102391.94;;;2.62;71.52
55610;BME280;41486;52.502;13.486;2023-03-01T09:16:42;102398.81;;;2.67;67.99
55610;BME280;41486;52.502;13.486;2023-03-01T09:19:10;102395.41;;;2.61;68.18
55610;BME280;41486;52.502;13.486;2023-03-01T09:21:38;102397.06;;;2.66;66.75
55610;BME280;41486;52.502;13.486;2023-03-01T09:24:12;102390.00;;;2.78;68.67
55610;BME280;41486;52.502;13.486;2023-03-01T09:26:40;102400.09;;;2.95;66.13
55610;BME280;41486;52.502;13.486;2023-03-01T09:29:08;102395.88;;;2.88;65.45
55610;BME280;41486;52.502;13.486;2023-03-01T09:31:37;102395.50;;;3.12;66.84
55610;BME280;41486;52.502;13.486;2023-03-01T09:34:07;102394.19;;;3.38;65.94
55610;BME280;41486;52.502;13.486;2023-03-01T09:36:36;102393.94;;;3.52;66.10
55610;BME280;41486;52.502;13.486;2023-03-01T09:39:05;102398.78;;;3.24;62.84
55610;BME280;41486;52.502;13.486;2023-03-01T09:41:43;102389.06;;;3.34;62.28
55610;BME280;41486;52.502;13.486;2023-03-01T09:44:21;102385.41;;;3.44;60.76
55610;BME280;41486;52.502;13.486;2023-03-01T09:46:51;102384.69;;;3.34;59.85
55610;BME280;41486;52.502;13.486;2023-03-01T09:49:23;102385.13;;;3.58;60.22
55610;BME280;41486;52.502;13.486;2023-03-01T09:51:59;102387.75;;;3.58;60.39
55610;BME280;41486;52.502;13.486;2023-03-01T09:54:27;102386.22;;;3.46;58.91
55610;BME280;41486;52.502;13.486;2023-03-01T09:57:11;102384.84;;;3.73;60.40
55610;BME280;41486;52.502;13.486;2023-03-01T09:59:59;102378.44;;;3.90;59.84
55610;BME280;41486;52.502;13.486;2023-03-01T10:02:38;102386.38;;;3.84;59.31
55610;BME280;41486;52.502;13.486;2023-03-01T10:05:19;102384.44;;;3.95;58.65
55610;BME280;41486;52.502;13.486;2023-03-01T10:07:59;102380.38;;;3.80;56.20
55610;BME280;41486;52.502;13.486;2023-03-01T10:10:33;102386.25;;;3.90;56.43
55610;BME280;41486;52.502;13.486;2023-03-01T10:13:10;102396.47;;;3.99;56.42
55610;BME280;41486;52.502;13.486;2023-03-01T10:15:43;102396.06;;;4.19;55.39
55610;BME280;41486;52.502;13.486;2023-03-01T10:18:15;102394.28;;;4.21;54.73
55610;BME280;41486;52.502;13.486;2023-03-01T10:20:50;102394.25;;;4.23;55.27
55610;BME280;41486;52.502;13.486;2023-03-01T10:23:19;102390.00;;;4.19;55.83
55610;BME280;41486;52.502;13.486;2023-03-01T10:25:56;102398.38;;;4.33;55.57
55610;BME280;41486;52.502;13.486;2023-03-01T10:28:43;102387.38;;;4.20;56.26
55610;BME280;41486;52.502;13.486;2023-03-01T10:31:22;102385.66;;;4.19;55.80
55610;BME280;41486;52.502;13.486;2023-03-01T10:33:55;102379.09;;;4.40;57.26
55610;BME280;41486;52.502;13.486;2023-03-01T10:36:26;102378.38;;;4.71;55.30
55610;BME280;41486;52.502;13.486;2023-03-01T10:38:56;102377.75;;;4.62;55.15
55610;BME280;41486;52.502;13.486;2023-03-01T10:41:26;102376.34;;;4.47;53.79
55610;BME280;41486;52.502;13.486;2023-03-01T10:43:57;102368.38;;;4.53;54.19
55610;BME280;41486;52.502;13.486;2023-03-01T10:46:28;102365.03;;;4.85;54.20
55610;BME280;41486;52.502;13.486;2023-03-01T10:49:10;102366.06;;;5.13;53.33
55610;BME280;41486;52.502;13.486;2023-03-01T10:51:43;102368.91;;;5.03;51.26
55610;BME280;41486;52.502;13.486;2023-03-01T10:54:17;102361.03;;;5.07;51.60
55610;BME280;41486;52.502;13.486;2023-03-01T10:56:50;102360.09;;;5.09;50.58
55610;BME280;41486;52.502;13.486;2023-03-01T10:59:24;102363.41;;;5.16;49.91
55610;BME280;41486;52.502;13.486;2023-03-01T11:04:58;102350.72;;;5.33;50.28
55610;BME280;41486;52.502;13.486;2023-03-01T11:07:28;102346.75;;;5.53;48.37
55610;BME280;41486;52.502;13.486;2023-03-01T11:09:56;102346.13;;;5.75;47.55
55610;BME280;41486;52.502;13.486;2023-03-01T11:12:25;102343.09;;;5.59;48.80
55610;BME280;41486;52.502;13.486;2023-03-01T11:14:57;102340.47;;;5.27;48.72
55610;BME280;41486;52.502;13.486;2023-03-01T11:17:28;102333.22;;;5.37;48.53
55610;BME280;41486;52.502;13.486;2023-03-01T11:20:13;102329.53;;;5.46;48.52
55610;BME280;41486;52.502;13.486;2023-03-01T11:22:47;102332.25;;;6.04;48.91
55610;BME280;41486;52.502;13.486;2023-03-01T11:25:17;102324.94;;;6.15;47.44
55610;BME280;41486;52.502;13.486;2023-03-01T11:27:47;102315.41;;;6.13;47.91
55610;BME280;41486;52.502;13.486;2023-03-01T11:30:18;102329.56;;;5.76;47.02
55610;BME280;41486;52.502;13.486;2023-03-01T11:32:57;102331.63;;;5.94;47.62
55610;BME280;41486;52.502;13.486;2023-03-01T11:35:29;102315.25;;;6.18;45.56
55610;BME280;41486;52.502;13.486;2023-03-01T11:38:12;102318.28;;;6.05;45.38
55610;BME280;41486;52.502;13.486;2023-03-01T11:40:45;102321.84;;;6.31;44.46
55610;BME280;41486;52.502;13.486;2023-03-01T11:43:27;102326.03;;;6.08;43.96
55610;BME280;41486;52.502;13.486;2023-03-01T11:46:33;102320.75;;;5.80;43.96
55610;BME280;41486;52.502;13.486;2023-03-01T11:52:02;102320.41;;;6.21;41.59
55610;BME280;41486;52.502;13.486;2023-03-01T11:54:42;102317.81;;;7.01;42.50
55610;BME280;41486;52.502;13.486;2023-03-01T11:57:43;102319.06;;;7.15;42.47
55610;BME280;41486;52.502;13.486;2023-03-01T12:00:25;102323.34;;;7.42;40.52
55610;BME280;41486;52.502;13.486;2023-03-01T12:03:19;102325.00;;;7.69;41.10
55610;BME280;41486;52.502;13.486;2023-03-01T12:06:12;102317.88;;;7.00;40.38
55610;BME280;41486;52.502;13.486;2023-03-01T12:08:59;102310.19;;;6.93;40.26
55610;BME280;41486;52.502;13.486;2023-03-01T12:11:41;102303.00;;;7.00;39.72
55610;BME280;41486;52.502;13.486;2023-03-01T12:14:37;102307.00;;;7.60;38.23
55610;BME280;41486;52.502;13.486;2023-03-01T12:17:22;102303.34;;;8.10;37.18
55610;BME280;41486;52.502;13.486;2023-03-01T12:20:17;102300.22;;;7.78;36.40
55610;BME280;41486;52.502;13.486;2023-03-01T12:25:55;102288.81;;;8.67;37.25
55610;BME280;41486;52.502;13.486;2023-03-01T12:28:42;102279.16;;;8.25;36.38
55610;BME280;41486;52.502;13.486;2023-03-01T12:31:36;102284.59;;;10.21;33.73
55610;BME280;41486;52.502;13.486;2023-03-01T12:34:26;102276.75;;;10.91;33.06
55610;BME280;41486;52.502;13.486;2023-03-01T12:37:14;102273.28;;;11.24;31.99
55610;BME280;41486;52.502;13.486;2023-03-01T12:39:57;102264.91;;;10.65;32.75
55610;BME280;41486;52.502;13.486;2023-03-01T12:42:37;102273.03;;;13.00;29.72
55610;BME280;41486;52.502;13.486;2023-03-01T12:45:27;102265.19;;;12.70;29.59
55610;BME280;41486;52.502;13.486;2023-03-01T12:48:08;102257.75;;;13.34;28.67
55610;BME280;41486;52.502;13.486;2023-03-01T12:50:41;102255.38;;;11.47;29.36
55610;BME280;41486;52.502;13.486;2023-03-01T12:53:20;102250.31;;;12.22;29.26
55610;BME280;41486;52.502;13.486;2023-03-01T12:55:50;102252.66;;;12.43;28.71
55610;BME280;41486;52.502;13.486;2023-03-01T12:58:24;102250.22;;;12.54;27.91
55610;BME280;41486;52.502;13.486;2023-03-01T13:01:16;102250.34;;;13.83;28.26
55610;BME280;41486;52.502;13.486;2023-03-01T13:04:06;102245.47;;;16.79;24.97
55610;BME280;41486;52.502;13.486;2023-03-01T13:06:41;102249.81;;;12.76;27.06
55610;BME280;41486;52.502;13.486;2023-03-01T13:09:21;102250.22;;;13.84;25.92
55610;BME280;41486;52.502;13.486;2023-03-01T13:11:52;102248.03;;;14.18;25.19